Time;durP1;ratioP1;P1;durP2;ratioP2;P2;SDS_P1;SDS_P2;PMS_P1;PMS_P2;Temp;Humidity;BMP_temperature;BMP_pressure;BME280_temperature;BME280_humidity;BME280_pressure;Samples;Min_cycle;Max_cycle;Signal;HPM_P1;HPM_P2
2021/12/18 00:00:49;;;;;;;13.00;7.73;;;9.60;99.90;;;;;;5051892;28;20845;-69
2021/12/18 00:03:17;;;;;;;13.97;6.80;;;9.50;99.90;;;;;;5044709;28;20462;-69
2021/12/18 00:05:45;;;;;;;13.10;7.03;;;9.50;99.90;;;;;;5041486;28;20504;-69
2021/12/18 00:08:12;;;;;;;11.27;6.90;;;9.50;99.90;;;;;;5050939;28;21024;-67
2021/12/18 00:10:40;;;;;;;14.53;6.20;;;9.60;99.90;;;;;;5043719;28;20499;-69
2021/12/18 00:13:07;;;;;;;16.03;8.60;;;9.60;99.90;;;;;;5033416;28;21140;-71
2021/12/18 00:15:34;;;;;;;17.30;8.73;;;9.60;99.90;;;;;;5018362;28;20491;-70
2021/12/18 00:18:00;;;;;;;12.30;7.40;;;9.50;99.90;;;;;;5021695;28;20565;-69
2021/12/18 00:20:28;;;;;;;12.60;6.87;;;9.30;99.90;;;;;;5036668;28;20463;-69
2021/12/18 00:22:57;;;;;;;16.50;6.60;;;9.50;99.90;;;;;;5065144;22;20584;-68
2021/12/18 00:25:24;;;;;;;9.07;5.43;;;9.40;99.90;;;;;;4981164;28;20468;-68
2021/12/18 00:27:51;;;;;;;10.00;5.50;;;9.30;99.90;;;;;;5003472;28;20561;-68
2021/12/18 00:30:18;;;;;;;6.60;4.87;;;9.00;99.90;;;;;;5004219;28;20590;-68
2021/12/18 00:32:45;;;;;;;11.80;4.97;;;9.10;99.90;;;;;;4993421;28;20573;-68
2021/12/18 00:35:12;;;;;;;9.40;6.30;;;9.20;99.90;;;;;;4985197;28;20518;-69
2021/12/18 00:37:39;;;;;;;8.90;4.57;;;9.40;99.90;;;;;;4971871;28;20552;-68
2021/12/18 00:40:17;;;;;;;7.67;4.30;;;9.40;99.90;;;;;;4966507;28;22961;-68
2021/12/18 00:42:48;;;;;;;5.70;3.40;;;9.20;99.90;;;;;;4974516;28;20489;-68
2021/12/18 00:45:17;;;;;;;6.20;2.80;;;9.20;99.90;;;;;;4969612;28;20572;-68
2021/12/18 00:47:46;;;;;;;5.80;3.73;;;9.10;99.90;;;;;;4981704;28;20580;-67
2021/12/18 00:50:15;;;;;;;5.73;3.33;;;9.20;99.90;;;;;;4994283;28;20935;-67
2021/12/18 00:52:43;;;;;;;14.13;4.57;;;9.20;99.90;;;;;;4979526;28;20890;-68
2021/12/18 00:55:12;;;;;;;8.07;3.90;;;9.10;99.90;;;;;;4972096;28;20488;-69
2021/12/18 00:57:39;;;;;;;6.00;4.07;;;9.10;99.90;;;;;;4969735;28;21497;-67
2021/12/18 01:00:09;;;;;;;6.63;4.00;;;9.10;99.90;;;;;;4980008;28;20456;-67
2021/12/18 01:02:40;;;;;;;4.17;3.23;;;9.10;99.90;;;;;;4964522;28;21648;-68
2021/12/18 01:05:08;;;;;;;6.30;4.53;;;9.10;99.90;;;;;;4954259;28;20492;-68
2021/12/18 01:07:35;;;;;;;4.30;3.00;;;9.00;99.90;;;;;;4960066;28;21007;-68
2021/12/18 01:10:12;;;;;;;11.27;4.13;;;8.90;99.90;;;;;;4989278;28;20881;-68
2021/12/18 01:12:44;;;;;;;5.63;3.10;;;8.90;99.90;;;;;;4985769;28;20505;-67
2021/12/18 01:15:18;;;;;;;6.20;3.90;;;9.00;99.90;;;;;;4988238;28;20548;-67
2021/12/18 01:23:13;;;;;;;4.23;3.53;;;9.20;99.90;;;;;;4966288;28;20480;-67
2021/12/18 01:25:40;;;;;;;4.80;3.50;;;9.30;99.90;;;;;;4985825;28;20548;-67
2021/12/18 01:28:08;;;;;;;7.30;3.30;;;9.30;99.90;;;;;;4996869;28;20465;-67
2021/12/18 01:30:35;;;;;;;6.97;3.50;;;9.30;99.90;;;;;;4990178;28;20516;-68
2021/12/18 01:33:02;;;;;;;9.03;4.20;;;9.20;99.90;;;;;;4993191;28;20461;-67
2021/12/18 01:35:30;;;;;;;8.40;4.00;;;9.30;99.90;;;;;;4984553;28;20504;-68
2021/12/18 01:37:57;;;;;;;6.80;4.00;;;9.40;99.90;;;;;;4993172;28;21264;-67
2021/12/18 01:40:25;;;;;;;8.77;4.80;;;9.40;99.90;;;;;;4988644;28;20978;-68
2021/12/18 01:43:59;;;;;;;6.87;3.50;;;9.40;99.90;;;;;;4991061;28;20463;-66
2021/12/18 01:46:35;;;;;;;6.00;3.60;;;9.40;99.90;;;;;;4984711;28;20454;-67
2021/12/18 01:52:01;;;;;;;4.90;2.87;;;9.40;99.90;;;;;;4991336;28;20475;-68
2021/12/18 01:54:28;;;;;;;8.00;5.50;;;9.50;99.90;;;;;;4993700;28;21012;-67
2021/12/18 01:56:56;;;;;;;3.40;2.50;;;9.50;99.90;;;;;;5000619;28;20490;-68
2021/12/18 01:59:34;;;;;;;7.97;3.60;;;9.40;99.90;;;;;;4993353;28;20461;-68
2021/12/18 02:02:03;;;;;;;5.53;3.00;;;9.30;99.90;;;;;;4994258;28;20473;-67
2021/12/18 02:04:30;;;;;;;5.77;3.20;;;9.20;99.90;;;;;;4992283;28;20815;-67
2021/12/18 02:06:59;;;;;;;5.77;3.80;;;9.20;99.90;;;;;;4989245;28;20472;-69
2021/12/18 02:09:34;;;;;;;8.37;3.73;;;9.40;99.90;;;;;;4986114;28;20617;-67
2021/12/18 02:12:01;;;;;;;6.73;3.50;;;9.40;99.90;;;;;;4989075;28;20877;-67
2021/12/18 02:19:32;;;;;;;7.77;3.70;;;9.30;99.90;;;;;;4986838;28;20527;-67
2021/12/18 02:20:23;;;;;;;5.80;4.53;;;9.30;99.90;;;;;;4996301;28;20441;-68
2021/12/18 02:22:51;;;;;;;4.37;2.97;;;9.30;99.90;;;;;;4995169;28;20497;-68
2021/12/18 02:25:20;;;;;;;8.67;4.90;;;9.20;99.90;;;;;;4986880;28;20472;-67
2021/12/18 02:27:49;;;;;;;6.90;4.47;;;9.30;99.90;;;;;;4993037;28;20490;-67
2021/12/18 02:30:17;;;;;;;10.17;3.77;;;9.40;99.90;;;;;;4991437;28;20457;-69
2021/12/18 02:32:44;;;;;;;7.40;3.50;;;9.50;99.90;;;;;;4988604;28;20847;-67
2021/12/18 02:35:26;;;;;;;8.90;5.00;;;9.50;99.90;;;;;;4985061;28;20485;-66
2021/12/18 02:38:02;;;;;;;6.20;3.27;;;9.50;99.90;;;;;;4989679;28;20533;-67
2021/12/18 02:43:27;;;;;;;7.17;3.90;;;9.50;99.90;;;;;;4950377;28;20459;-69
2021/12/18 02:45:59;;;;;;;10.53;4.73;;;9.50;99.90;;;;;;4974966;28;20466;-67
2021/12/18 02:48:26;;;;;;;9.60;4.27;;;9.50;99.90;;;;;;4987852;28;20467;-67
2021/12/18 02:50:55;;;;;;;8.07;4.77;;;9.60;99.90;;;;;;4989370;28;20861;-68
2021/12/18 02:53:22;;;;;;;6.47;4.43;;;9.60;99.90;;;;;;4986613;28;20550;-66
2021/12/18 02:55:55;;;;;;;7.03;4.93;;;9.60;99.90;;;;;;4988298;28;20535;-68
2021/12/18 02:58:22;;;;;;;8.53;3.47;;;9.60;99.90;;;;;;4990908;28;20537;-68
2021/12/18 03:00:51;;;;;;;7.67;3.53;;;9.60;99.90;;;;;;4989071;28;20773;-68
2021/12/18 03:03:19;;;;;;;4.73;2.83;;;9.60;99.90;;;;;;4993004;28;20470;-68
2021/12/18 03:05:55;;;;;;;5.93;3.80;;;9.60;99.90;;;;;;4988492;28;20462;-68
2021/12/18 03:08:37;;;;;;;7.50;4.87;;;9.60;99.90;;;;;;4990446;28;20464;-68
2021/12/18 03:24:57;;;;;;;3.90;2.50;;;9.60;99.90;;;;;;4990657;28;20430;-67
2021/12/18 03:27:25;;;;;;;6.77;4.27;;;9.50;99.90;;;;;;4983310;28;20461;-67
2021/12/18 03:29:52;;;;;;;9.60;3.43;;;9.40;99.90;;;;;;4991061;28;20524;-67
2021/12/18 03:32:20;;;;;;;7.70;3.77;;;9.30;99.90;;;;;;4989812;28;20450;-67
2021/12/18 03:34:47;;;;;;;5.20;3.23;;;9.30;99.90;;;;;;4986216;28;20573;-67
2021/12/18 03:37:14;;;;;;;4.23;3.07;;;9.20;99.90;;;;;;4986310;28;21100;-67
2021/12/18 03:39:41;;;;;;;8.20;3.10;;;9.10;99.90;;;;;;4992571;28;20497;-67
2021/12/18 03:42:10;;;;;;;5.30;3.40;;;9.10;99.90;;;;;;4986494;28;20548;-66
2021/12/18 03:44:38;;;;;;;6.00;4.30;;;9.10;99.90;;;;;;4988388;28;20542;-67
2021/12/18 03:47:05;;;;;;;7.80;3.37;;;8.90;99.90;;;;;;4989447;28;20453;-67
2021/12/18 03:49:33;;;;;;;5.70;4.40;;;8.80;99.90;;;;;;4993607;28;20543;-67
2021/12/18 03:52:00;;;;;;;6.93;3.27;;;8.90;99.90;;;;;;4983963;28;21038;-67
2021/12/18 03:54:27;;;;;;;9.63;3.57;;;9.00;99.90;;;;;;4989573;28;20548;-68
2021/12/18 03:56:54;;;;;;;7.40;3.93;;;9.10;99.90;;;;;;4988523;28;20495;-67
2021/12/18 03:59:22;;;;;;;6.40;3.10;;;9.20;99.90;;;;;;4985543;28;20466;-66
2021/12/18 04:01:49;;;;;;;10.90;3.70;;;9.30;99.90;;;;;;4985385;28;20497;-67
2021/12/18 04:04:16;;;;;;;7.80;4.27;;;9.30;99.90;;;;;;4986083;28;20782;-68
2021/12/18 04:06:44;;;;;;;9.93;5.47;;;9.40;99.90;;;;;;4987170;28;21159;-68
2021/12/18 04:09:12;;;;;;;8.40;3.87;;;9.40;99.90;;;;;;4990356;28;20497;-68
2021/12/18 04:11:39;;;;;;;12.47;4.80;;;9.50;99.90;;;;;;4992128;28;20492;-67
2021/12/18 04:14:07;;;;;;;12.10;4.17;;;9.60;99.90;;;;;;4992014;28;20532;-67
2021/12/18 04:16:36;;;;;;;9.20;3.97;;;9.60;99.90;;;;;;4985583;28;20503;-67
2021/12/18 04:19:03;;;;;;;6.87;4.10;;;9.60;99.90;;;;;;4986171;28;20550;-68
2021/12/18 04:21:31;;;;;;;8.50;3.80;;;9.60;99.90;;;;;;4994911;28;20473;-68
2021/12/18 04:23:58;;;;;;;6.37;4.10;;;9.50;99.90;;;;;;4988512;28;20500;-68
2021/12/18 04:26:25;;;;;;;5.77;3.17;;;9.40;99.90;;;;;;4988088;28;20456;-68
2021/12/18 04:28:52;;;;;;;8.13;3.73;;;9.50;99.90;;;;;;4991271;28;20507;-68
2021/12/18 04:31:19;;;;;;;11.63;5.40;;;9.50;99.90;;;;;;4990577;28;20451;-68
2021/12/18 04:33:48;;;;;;;7.93;3.20;;;9.50;99.90;;;;;;4989206;28;20511;-68
2021/12/18 04:36:15;;;;;;;10.33;3.57;;;9.50;99.90;;;;;;4980157;28;20489;-67
2021/12/18 04:38:42;;;;;;;7.17;4.20;;;9.40;99.90;;;;;;4985491;28;20460;-67
2021/12/18 04:41:10;;;;;;;9.30;4.50;;;9.10;99.90;;;;;;4982714;28;20902;-68
2021/12/18 04:43:37;;;;;;;9.10;4.60;;;9.00;99.90;;;;;;4986194;28;20484;-67
2021/12/18 04:46:05;;;;;;;13.77;5.60;;;9.10;99.90;;;;;;4984945;28;20576;-68
2021/12/18 04:48:32;;;;;;;11.60;4.90;;;9.10;99.90;;;;;;4990481;28;20554;-67
2021/12/18 04:51:00;;;;;;;9.93;4.73;;;9.20;99.90;;;;;;4987468;28;20466;-67
2021/12/18 04:53:27;;;;;;;7.57;4.10;;;9.20;99.90;;;;;;4988564;28;20514;-68
2021/12/18 04:55:54;;;;;;;8.37;5.00;;;9.20;99.90;;;;;;4987559;28;20909;-67
2021/12/18 04:58:21;;;;;;;10.17;5.87;;;9.20;99.90;;;;;;4995029;28;20591;-68
2021/12/18 05:00:48;;;;;;;11.00;5.90;;;9.20;99.90;;;;;;4991474;28;20519;-68
2021/12/18 05:03:18;;;;;;;12.07;5.83;;;9.10;99.90;;;;;;4993321;28;20512;-66
2021/12/18 05:05:45;;;;;;;11.57;6.27;;;9.20;99.90;;;;;;4983719;28;20454;-68
2021/12/18 05:08:13;;;;;;;19.90;5.30;;;9.20;99.90;;;;;;4993045;28;20970;-67
2021/12/18 05:10:40;;;;;;;8.40;5.00;;;9.20;99.90;;;;;;4990623;28;20535;-68
2021/12/18 05:13:07;;;;;;;12.63;5.67;;;9.10;99.90;;;;;;4989478;28;20556;-68
2021/12/18 05:15:35;;;;;;;10.90;4.90;;;9.10;99.90;;;;;;4992985;28;20484;-67
2021/12/18 05:18:01;;;;;;;16.83;8.27;;;9.30;99.90;;;;;;4989818;28;20453;-68
2021/12/18 05:20:29;;;;;;;13.27;7.00;;;9.30;99.90;;;;;;4993178;28;20490;-68
2021/12/18 05:22:56;;;;;;;10.20;6.63;;;9.30;99.90;;;;;;4990837;28;20792;-68
2021/12/18 05:25:24;;;;;;;13.37;3.70;;;9.30;99.90;;;;;;4989590;28;20459;-68
2021/12/18 05:27:52;;;;;;;12.40;5.40;;;9.30;99.90;;;;;;4993480;28;20489;-67
2021/12/18 05:30:18;;;;;;;12.57;6.03;;;9.10;99.90;;;;;;4989450;28;20475;-67
2021/12/18 05:32:45;;;;;;;9.47;5.43;;;9.20;99.90;;;;;;4997039;28;20566;-67
2021/12/18 05:35:14;;;;;;;7.57;4.60;;;9.20;99.90;;;;;;4998916;28;20486;-67
2021/12/18 05:37:47;;;;;;;11.87;5.13;;;9.20;99.90;;;;;;4989294;28;20485;-67
2021/12/18 05:40:16;;;;;;;9.87;4.60;;;9.30;99.90;;;;;;4985676;28;20480;-68
2021/12/18 05:42:45;;;;;;;13.63;5.00;;;9.30;99.90;;;;;;4992335;28;20504;-67
2021/12/18 05:45:12;;;;;;;26.03;6.07;;;9.40;99.90;;;;;;4988448;28;20471;-66
2021/12/18 05:47:39;;;;;;;14.87;7.00;;;9.40;99.90;;;;;;4988611;28;20465;-67
2021/12/18 05:50:07;;;;;;;19.20;6.27;;;9.40;99.90;;;;;;4989836;28;20470;-67
2021/12/18 05:52:34;;;;;;;14.97;5.40;;;9.50;99.90;;;;;;4986327;28;20559;-67
2021/12/18 05:55:01;;;;;;;19.23;6.37;;;9.40;99.90;;;;;;4980799;28;20560;-67
2021/12/18 05:57:28;;;;;;;11.77;7.30;;;9.40;99.90;;;;;;4987475;28;20539;-68
2021/12/18 05:59:57;;;;;;;23.23;6.63;;;9.40;99.90;;;;;;4987740;28;21108;-68
2021/12/18 06:02:24;;;;;;;10.83;6.67;;;9.30;99.90;;;;;;4987436;28;20487;-67
2021/12/18 06:04:51;;;;;;;7.70;4.43;;;9.40;99.90;;;;;;4987860;28;20553;-68
2021/12/18 06:07:29;;;;;;;10.33;5.27;;;9.30;99.90;;;;;;4986271;28;20457;-67
2021/12/18 06:09:56;;;;;;;15.63;6.93;;;9.10;99.90;;;;;;4987651;28;20453;-67
2021/12/18 06:12:23;;;;;;;13.13;6.53;;;9.30;99.90;;;;;;4995204;28;20451;-67
2021/12/18 06:14:51;;;;;;;15.20;6.23;;;9.30;99.90;;;;;;4983909;28;20494;-68
2021/12/18 06:17:19;;;;;;;10.67;5.87;;;9.30;99.90;;;;;;4993824;28;20489;-68
2021/12/18 06:19:46;;;;;;;13.27;5.50;;;9.30;99.90;;;;;;4997975;28;20540;-67
2021/12/18 06:22:13;;;;;;;22.27;10.10;;;9.30;99.90;;;;;;4992110;28;20533;-66
2021/12/18 06:24:40;;;;;;;25.57;12.07;;;9.30;99.90;;;;;;4988989;28;20525;-66
2021/12/18 06:27:07;;;;;;;27.57;11.37;;;9.40;99.90;;;;;;4985535;28;20473;-68
2021/12/18 06:29:34;;;;;;;20.33;7.90;;;9.50;99.90;;;;;;4985152;28;20556;-68
2021/12/18 06:32:01;;;;;;;20.07;7.90;;;9.40;99.90;;;;;;4992055;28;20449;-67
2021/12/18 06:34:30;;;;;;;18.70;8.80;;;9.40;99.90;;;;;;4992177;28;20465;-67
2021/12/18 06:36:57;;;;;;;20.93;7.37;;;9.20;99.90;;;;;;4990064;28;22236;-68
2021/12/18 06:39:23;;;;;;;11.80;7.37;;;9.30;99.90;;;;;;4992025;28;20567;-68
2021/12/18 06:41:50;;;;;;;20.47;9.63;;;9.30;99.90;;;;;;4984423;28;20536;-68
2021/12/18 06:44:17;;;;;;;13.80;6.50;;;9.30;99.90;;;;;;4980334;28;20489;-68
2021/12/18 06:46:44;;;;;;;18.37;9.20;;;9.40;99.90;;;;;;4986394;28;20552;-68
2021/12/18 06:49:11;;;;;;;21.97;7.67;;;9.40;99.90;;;;;;4987745;28;20576;-68
2021/12/18 06:51:40;;;;;;;12.53;7.30;;;9.30;99.90;;;;;;4990264;28;20504;-68
2021/12/18 06:54:07;;;;;;;15.33;7.50;;;9.30;99.90;;;;;;4988677;28;20493;-68
2021/12/18 06:56:34;;;;;;;14.93;6.70;;;9.30;99.90;;;;;;4976985;28;20486;-66
2021/12/18 06:59:01;;;;;;;18.70;7.50;;;9.30;99.90;;;;;;4991291;28;21790;-68
2021/12/18 07:01:28;;;;;;;13.80;5.77;;;9.30;99.90;;;;;;4990657;28;20856;-68
2021/12/18 07:03:55;;;;;;;18.07;6.07;;;9.40;99.90;;;;;;4998940;28;20554;-67
2021/12/18 07:06:22;;;;;;;9.93;6.10;;;9.30;99.90;;;;;;4999703;28;20497;-68
2021/12/18 07:08:50;;;;;;;12.27;4.43;;;9.10;99.90;;;;;;5002361;28;20469;-68
2021/12/18 07:11:18;;;;;;;10.70;5.80;;;9.30;99.90;;;;;;4999114;28;21005;-67
2021/12/18 07:13:45;;;;;;;12.67;5.83;;;9.30;99.90;;;;;;4997105;28;20532;-66
2021/12/18 07:16:12;;;;;;;10.00;6.20;;;9.40;99.90;;;;;;4990394;28;20462;-69
2021/12/18 07:18:38;;;;;;;11.70;4.90;;;9.50;99.90;;;;;;4995364;28;20562;-69
2021/12/18 07:21:05;;;;;;;13.90;6.27;;;9.50;99.90;;;;;;4994530;28;20443;-67
2021/12/18 07:23:33;;;;;;;10.33;5.80;;;9.60;99.90;;;;;;4991413;28;20548;-67
2021/12/18 07:26:01;;;;;;;17.90;7.87;;;9.60;99.90;;;;;;4985166;28;20458;-67
2021/12/18 07:28:28;;;;;;;17.00;5.67;;;9.50;99.90;;;;;;4983100;28;20451;-67
2021/12/18 07:30:55;;;;;;;9.17;5.23;;;9.60;99.90;;;;;;4990611;28;20456;-67
2021/12/18 07:33:22;;;;;;;14.57;7.20;;;9.60;99.90;;;;;;4995493;28;20561;-67
2021/12/18 07:35:50;;;;;;;10.33;5.67;;;9.30;99.90;;;;;;4983345;28;20544;-67
2021/12/18 07:38:17;;;;;;;12.53;5.27;;;9.40;99.90;;;;;;5000321;28;20575;-67
2021/12/18 07:40:44;;;;;;;10.27;4.13;;;9.60;99.90;;;;;;5003816;28;20485;-68
2021/12/18 07:43:12;;;;;;;9.90;5.17;;;9.40;99.90;;;;;;4996513;28;20489;-67
2021/12/18 07:45:39;;;;;;;6.37;3.93;;;9.40;99.90;;;;;;4995794;28;21019;-68
2021/12/18 07:48:06;;;;;;;6.60;3.33;;;9.20;99.90;;;;;;4994501;28;20457;-68
2021/12/18 07:50:34;;;;;;;4.23;3.83;;;9.30;99.90;;;;;;4978828;28;20573;-67
2021/12/18 07:53:01;;;;;;;12.20;4.63;;;9.30;99.90;;;;;;4987074;28;20485;-67
2021/12/18 07:55:29;;;;;;;4.60;3.20;;;9.30;99.90;;;;;;4973098;28;20461;-67
2021/12/18 07:57:56;;;;;;;4.63;2.53;;;9.30;99.90;;;;;;4976623;28;20474;-67
2021/12/18 08:00:25;;;;;;;5.50;2.90;;;9.20;99.90;;;;;;4997869;28;20473;-67
2021/12/18 08:02:52;;;;;;;4.57;3.80;;;9.20;99.90;;;;;;4997049;28;20465;-67
2021/12/18 08:05:19;;;;;;;3.53;3.07;;;9.20;99.90;;;;;;4999096;28;20488;-68
2021/12/18 08:07:47;;;;;;;4.63;2.23;;;9.30;99.90;;;;;;5002644;28;20533;-67
2021/12/18 08:10:16;;;;;;;4.87;2.43;;;9.40;99.90;;;;;;5039575;23;21392;-71
2021/12/18 08:12:43;;;;;;;5.17;2.30;;;9.30;99.90;;;;;;5035779;28;20487;-71
2021/12/18 08:15:11;;;;;;;5.63;2.50;;;9.20;99.90;;;;;;5040338;28;20539;-69
2021/12/18 08:17:40;;;;;;;6.23;3.50;;;9.20;99.90;;;;;;5046053;28;20515;-70
2021/12/18 08:20:09;;;;;;;7.87;2.90;;;9.20;99.90;;;;;;5042624;28;20447;-69
2021/12/18 08:22:36;;;;;;;3.10;2.03;;;9.00;99.90;;;;;;5044728;28;20948;-72
2021/12/18 08:25:04;;;;;;;4.20;3.07;;;9.00;99.90;;;;;;5039183;28;20463;-69
2021/12/18 08:27:31;;;;;;;4.73;2.30;;;9.00;99.90;;;;;;5044397;28;20448;-68
2021/12/18 08:29:58;;;;;;;7.73;3.80;;;9.20;99.90;;;;;;5042915;28;20500;-73
2021/12/18 08:32:26;;;;;;;3.63;2.47;;;9.20;99.90;;;;;;5043078;28;20440;-72
2021/12/18 08:34:55;;;;;;;7.07;3.43;;;9.10;99.90;;;;;;5044734;28;20537;-71
2021/12/18 08:37:22;;;;;;;4.57;2.30;;;9.10;99.90;;;;;;5049745;28;20479;-69
2021/12/18 08:39:50;;;;;;;3.30;2.50;;;9.20;99.90;;;;;;5041443;28;20964;-69
2021/12/18 08:42:17;;;;;;;8.63;3.13;;;9.20;99.90;;;;;;5040323;28;20572;-70
2021/12/18 08:44:44;;;;;;;6.63;2.80;;;9.20;99.90;;;;;;5043796;28;20440;-70
2021/12/18 08:47:11;;;;;;;7.10;2.47;;;9.20;99.90;;;;;;5042501;28;20525;-74
2021/12/18 08:49:38;;;;;;;6.87;3.40;;;9.20;99.90;;;;;;5043175;28;20535;-70
2021/12/18 08:52:07;;;;;;;4.73;2.40;;;9.20;99.90;;;;;;5042684;28;20467;-70
2021/12/18 08:54:34;;;;;;;4.37;3.97;;;9.20;99.90;;;;;;5037530;28;20899;-70
2021/12/18 08:57:01;;;;;;;3.70;2.53;;;9.20;99.90;;;;;;5039259;28;20479;-70
2021/12/18 08:59:28;;;;;;;7.57;2.33;;;9.20;99.90;;;;;;5041905;28;20511;-70
2021/12/18 09:01:55;;;;;;;3.30;1.73;;;9.10;99.90;;;;;;5041052;28;20557;-70
2021/12/18 09:04:22;;;;;;;5.13;2.40;;;9.10;99.90;;;;;;5041200;28;20847;-71
2021/12/18 09:06:49;;;;;;;4.73;4.27;;;9.20;99.90;;;;;;5042489;28;20933;-72
2021/12/18 09:09:17;;;;;;;3.30;2.17;;;9.30;99.90;;;;;;5040256;28;20526;-69
2021/12/18 09:11:44;;;;;;;3.67;2.03;;;9.20;99.90;;;;;;5037616;28;20446;-70
2021/12/18 09:14:11;;;;;;;4.40;3.20;;;9.30;99.90;;;;;;5039714;28;20448;-73
2021/12/18 09:16:38;;;;;;;4.33;2.33;;;9.30;99.90;;;;;;5040380;28;20923;-70
2021/12/18 09:19:05;;;;;;;5.53;2.60;;;9.30;99.90;;;;;;5048015;28;20509;-72
2021/12/18 09:21:32;;;;;;;3.90;1.90;;;9.40;99.90;;;;;;5046099;28;20522;-70
2021/12/18 09:23:59;;;;;;;4.63;3.30;;;9.30;99.90;;;;;;5041639;28;20418;-71
2021/12/18 09:26:28;;;;;;;4.33;2.00;;;9.30;99.90;;;;;;5036793;28;20553;-70
2021/12/18 09:28:55;;;;;;;2.57;1.60;;;9.50;99.90;;;;;;5042871;28;20901;-70
2021/12/18 09:31:22;;;;;;;6.07;1.80;;;9.40;99.90;;;;;;5041084;28;20571;-69
2021/12/18 09:33:49;;;;;;;4.17;1.70;;;9.20;99.90;;;;;;5042601;28;20547;-69
2021/12/18 09:36:17;;;;;;;2.67;1.83;;;9.20;99.90;;;;;;5048398;28;20459;-70
2021/12/18 09:38:44;;;;;;;1.83;1.30;;;9.30;99.90;;;;;;5045473;28;21185;-69
2021/12/18 09:41:11;;;;;;;4.53;1.57;;;9.30;99.90;;;;;;5044294;28;20471;-75
2021/12/18 09:43:40;;;;;;;2.17;1.30;;;9.20;99.90;;;;;;5044092;28;20567;-70
2021/12/18 09:46:09;;;;;;;3.80;2.37;;;9.30;99.90;;;;;;5041480;28;20542;-70
2021/12/18 09:48:37;;;;;;;2.37;1.87;;;9.40;99.90;;;;;;5049453;28;20439;-70
2021/12/18 09:51:08;;;;;;;2.10;1.50;;;9.40;99.90;;;;;;5047353;28;20466;-70
2021/12/18 09:53:35;;;;;;;2.70;1.50;;;9.30;99.90;;;;;;5039482;28;20440;-71
2021/12/18 09:56:03;;;;;;;1.73;1.50;;;9.20;99.90;;;;;;5039795;28;20468;-70
2021/12/18 09:58:30;;;;;;;1.30;1.10;;;9.20;99.90;;;;;;5042752;28;20475;-72
2021/12/18 10:00:59;;;;;;;2.60;1.73;;;9.10;99.90;;;;;;5043101;28;20847;-69
2021/12/18 10:03:44;;;;;;;5.20;1.90;;;9.10;99.90;;;;;;5044806;28;20933;-71
2021/12/18 10:06:35;;;;;;;2.37;1.30;;;9.10;99.90;;;;;;5040472;28;20697;-71
2021/12/18 10:09:03;;;;;;;2.70;1.50;;;9.20;99.90;;;;;;5045776;28;20925;-69
2021/12/18 10:11:30;;;;;;;2.13;1.30;;;9.20;99.90;;;;;;5039809;28;20503;-71
2021/12/18 10:14:01;;;;;;;1.70;1.40;;;9.30;99.90;;;;;;5042679;28;20467;-69
2021/12/18 10:16:32;;;;;;;1.30;1.20;;;9.40;99.90;;;;;;5032245;28;20462;-70
2021/12/18 10:19:00;;;;;;;3.20;1.60;;;9.20;99.90;;;;;;5039882;28;20469;-70
2021/12/18 10:21:30;;;;;;;2.90;1.80;;;9.20;99.90;;;;;;5038221;28;20501;-70
2021/12/18 10:24:13;;;;;;;1.80;1.30;;;9.10;99.90;;;;;;5031510;28;20513;-71
2021/12/18 10:26:43;;;;;;;4.00;2.13;;;9.20;99.90;;;;;;5039177;28;20463;-70
2021/12/18 10:29:25;;;;;;;3.67;2.17;;;9.20;99.90;;;;;;5036158;28;21541;-71
2021/12/18 10:31:54;;;;;;;6.00;3.13;;;9.40;99.90;;;;;;5036231;28;20523;-69
2021/12/18 10:34:24;;;;;;;7.20;2.40;;;9.30;99.90;;;;;;5043966;28;20456;-70
2021/12/18 10:37:25;;;;;;;5.37;2.50;;;9.10;99.90;;;;;;5040068;28;20499;-69
2021/12/18 10:40:02;;;;;;;2.30;2.03;;;9.30;99.90;;;;;;5016612;28;20448;-71
2021/12/18 10:42:31;;;;;;;3.67;1.80;;;9.50;99.90;;;;;;5019810;28;21143;-70
2021/12/18 10:45:14;;;;;;;2.43;1.63;;;9.40;99.90;;;;;;5027365;28;20565;-71
2021/12/18 10:47:52;;;;;;;2.43;1.60;;;9.50;99.90;;;;;;5044083;28;20463;-69
2021/12/18 10:50:29;;;;;;;2.73;1.57;;;9.50;99.90;;;;;;5040980;28;20545;-73
2021/12/18 10:52:58;;;;;;;3.77;2.43;;;9.30;99.90;;;;;;5039409;28;20489;-72
2021/12/18 10:55:35;;;;;;;2.47;2.23;;;9.30;99.90;;;;;;5036838;28;20491;-71
2021/12/18 10:58:05;;;;;;;4.63;2.37;;;9.30;99.90;;;;;;5036174;28;20603;-69
2021/12/18 11:00:39;;;;;;;3.73;2.00;;;9.30;99.90;;;;;;5043459;28;20536;-71
2021/12/18 11:03:26;;;;;;;3.87;2.17;;;9.50;99.90;;;;;;5024790;28;20968;-72
2021/12/18 11:06:12;;;;;;;3.53;2.13;;;9.40;99.90;;;;;;5018574;28;20456;-68
2021/12/18 11:09:06;;;;;;;5.30;1.67;;;9.60;99.90;;;;;;5010436;28;20582;-69
2021/12/18 11:14:34;;;;;;;2.27;1.63;;;9.60;99.90;;;;;;5036961;28;20504;-69
2021/12/18 11:17:03;;;;;;;2.90;1.50;;;9.60;99.90;;;;;;5040163;28;20495;-71
2021/12/18 11:19:33;;;;;;;3.30;1.93;;;9.60;99.90;;;;;;5042417;28;20483;-70
2021/12/18 11:22:02;;;;;;;2.87;1.43;;;9.60;99.90;;;;;;5037580;28;20515;-70
2021/12/18 11:24:33;;;;;;;2.67;1.50;;;9.60;99.90;;;;;;5032895;28;20513;-71
2021/12/18 11:27:03;;;;;;;1.90;1.43;;;9.60;99.90;;;;;;5038629;28;20843;-69
2021/12/18 11:29:39;;;;;;;2.40;1.57;;;9.50;99.90;;;;;;5039279;28;20468;-70
2021/12/18 11:32:08;;;;;;;2.50;1.43;;;9.40;99.90;;;;;;5041199;28;20556;-72
2021/12/18 11:34:39;;;;;;;2.47;1.53;;;9.50;99.90;;;;;;5038392;28;20549;-70
2021/12/18 11:37:08;;;;;;;2.90;2.13;;;9.50;99.90;;;;;;5040142;28;20464;-70
2021/12/18 11:39:37;;;;;;;2.20;1.60;;;9.50;99.90;;;;;;5040773;28;20988;-71
2021/12/18 11:42:05;;;;;;;2.17;1.20;;;9.50;99.90;;;;;;5036733;28;20487;-70
2021/12/18 11:44:35;;;;;;;3.07;1.97;;;9.60;99.90;;;;;;5039366;28;20471;-71
2021/12/18 11:47:24;;;;;;;2.33;2.13;;;9.60;99.90;;;;;;5042495;28;20461;-70
2021/12/18 11:49:56;;;;;;;1.30;1.10;;;9.50;99.90;;;;;;5038274;28;20461;-72
2021/12/18 11:52:23;;;;;;;2.50;1.77;;;9.40;99.90;;;;;;5038781;28;20974;-71
2021/12/18 11:54:54;;;;;;;3.10;1.77;;;9.40;99.90;;;;;;5036722;28;20522;-71
2021/12/18 11:57:44;;;;;;;2.87;1.20;;;9.30;99.90;;;;;;5038387;28;20956;-72
2021/12/18 12:00:40;;;;;;;5.10;1.63;;;9.30;99.90;;;;;;5040858;28;20948;-71
2021/12/18 12:03:10;;;;;;;1.77;1.67;;;9.10;99.90;;;;;;5041152;28;20499;-70
2021/12/18 12:05:41;;;;;;;6.80;1.97;;;9.00;99.90;;;;;;5042055;28;20534;-70
2021/12/18 12:08:40;;;;;;;2.60;1.40;;;8.90;99.90;;;;;;5039340;28;20501;-72
2021/12/18 12:11:16;;;;;;;5.27;2.33;;;8.90;99.90;;;;;;4951339;28;20490;-70
2021/12/18 12:14:01;;;;;;;2.63;2.03;;;8.80;99.90;;;;;;5027802;28;20589;-69
2021/12/18 12:17:04;;;;;;;2.13;1.40;;;8.80;99.90;;;;;;5040283;28;20552;-70
2021/12/18 12:19:49;;;;;;;2.90;1.87;;;8.90;99.90;;;;;;5044438;28;20967;-71
2021/12/18 12:22:52;;;;;;;4.17;2.03;;;8.90;99.90;;;;;;5043414;28;20537;-73
2021/12/18 12:25:33;;;;;;;5.63;1.90;;;8.90;99.90;;;;;;5001676;28;20459;-70
2021/12/18 12:28:03;;;;;;;3.47;2.80;;;8.90;99.90;;;;;;5040053;28;20464;-68
2021/12/18 12:30:38;;;;;;;2.50;2.13;;;8.80;99.90;;;;;;5031511;28;20572;-69
2021/12/18 12:33:07;;;;;;;3.10;1.77;;;8.70;99.90;;;;;;5027173;28;20502;-72
2021/12/18 12:36:03;;;;;;;2.00;1.80;;;8.90;99.90;;;;;;5031167;28;20460;-68
2021/12/18 12:38:35;;;;;;;2.20;1.60;;;8.90;99.90;;;;;;5027099;28;20616;-71
2021/12/18 12:41:30;;;;;;;4.43;2.40;;;8.70;99.90;;;;;;5029975;28;20442;-68
2021/12/18 12:44:01;;;;;;;5.60;1.93;;;8.70;99.90;;;;;;5031800;28;20444;-68
2021/12/18 12:46:29;;;;;;;2.60;1.77;;;8.70;99.90;;;;;;5033520;28;20494;-70
2021/12/18 12:49:01;;;;;;;5.83;2.17;;;8.70;99.90;;;;;;5029791;28;20495;-70
2021/12/18 12:52:11;;;;;;;4.33;1.83;;;8.60;99.90;;;;;;5036122;28;20519;-71
2021/12/18 12:54:57;;;;;;;2.37;1.30;;;8.70;99.90;;;;;;4950201;28;20918;-70
2021/12/18 12:57:36;;;;;;;1.63;1.50;;;8.50;99.90;;;;;;5015441;28;20459;-68
2021/12/18 13:00:36;;;;;;;4.80;2.20;;;8.30;99.90;;;;;;5019198;28;20490;-70
2021/12/18 13:03:11;;;;;;;2.50;2.20;;;8.30;99.90;;;;;;5022959;28;20908;-68
2021/12/18 13:05:51;;;;;;;4.27;2.77;;;8.50;99.90;;;;;;5012625;28;20976;-70
2021/12/18 13:08:18;;;;;;;3.73;1.50;;;8.50;99.90;;;;;;5020428;28;20456;-68
2021/12/18 13:10:51;;;;;;;2.47;1.90;;;8.50;99.90;;;;;;5008242;28;20506;-68
2021/12/18 13:13:20;;;;;;;4.10;2.40;;;8.40;99.90;;;;;;5024867;28;20455;-69
2021/12/18 13:15:49;;;;;;;6.20;2.60;;;8.30;99.90;;;;;;5022799;28;20609;-68
2021/12/18 13:18:17;;;;;;;2.23;2.03;;;8.40;99.90;;;;;;5022692;28;20463;-70
2021/12/18 13:20:46;;;;;;;1.40;1.30;;;8.40;99.90;;;;;;5005277;28;20463;-70
2021/12/18 13:23:18;;;;;;;1.27;1.17;;;8.30;99.90;;;;;;5024183;28;20460;-70
2021/12/18 13:25:51;;;;;;;2.23;1.30;;;8.30;99.90;;;;;;5027091;28;20436;-73
2021/12/18 13:28:18;;;;;;;1.97;1.50;;;8.30;99.90;;;;;;5020999;28;20580;-70
2021/12/18 13:30:48;;;;;;;1.40;0.97;;;8.30;99.90;;;;;;5027747;28;20483;-68
2021/12/18 13:33:15;;;;;;;1.40;1.30;;;8.20;99.90;;;;;;5030879;28;20504;-70
2021/12/18 13:35:42;;;;;;;4.10;2.47;;;8.20;99.90;;;;;;5027020;28;20454;-70
2021/12/18 13:38:11;;;;;;;3.70;2.03;;;8.30;99.90;;;;;;5038738;28;20455;-68
2021/12/18 13:40:45;;;;;;;2.23;1.70;;;8.40;99.90;;;;;;5028329;28;20442;-70
2021/12/18 13:43:15;;;;;;;2.30;2.10;;;8.40;99.90;;;;;;5034931;28;20509;-70